Details From SBGR - Sao Paulo - Guarulhos
To SBCF - Tancredo Neves
Flight Number -
Tags decoded
Created
Modified
Stats Distance 267 nm / 495 km
Max Altitude 0 ft / 0 m
Waypoints 2
Social Downloads 4
Likes 0
Share VATSIM

Download

Looking for another format? Having issues loading an existing format? Contact us
Advertisement - Login to hide

Notes

Requested: SBGR UBRIR UZ23 OPKES SBCF Unmatched points: UBRIR UZ23 OPKES

Route

SBGR SBCF

ID Type Via Altitude Latitude Longitude Leg Dist Tot Dist Heading (true) Name
O SBGR APT - 0 ft / 0 m -23.43233˚ -46.46968˚ - 0 nm - Sao Paulo - Guarulhos
O SBCF APT - 0 ft / 0 m -19.63376˚ -43.96885˚ 267 nm 267 nm 32° / 31° Tancredo Neves

Altitude Profile

Advertisement - Login to hide

Weather


0- 5 10 15 20 25 30 35+ Temperature / ° C

Clouds and Precipitation
Forecast for 2018-06-19 12:00 UTC. Updated an hour ago

Ground ~20,000 ft ~40,000 ft Winds

SBGR

Details ICAO SBGR (GRU)
Name Sao Paulo - Guarulhos
Region Brazil
Timezone America/Sao_Paulo (UTC-3.0)
Stats Elevation 2,459 ft / 750 m (AMSL)
Location -23.432333° -46.469675°
Runways 2
Magnetic Variation 21.475° W

METAR

SBGR 191000Z 06006KT 9999 BKN026 15/15 Q1027

Decode

TAF

TAF SBGR 190201Z 1906/2012 11002KT 8000 BKN011TN14/1906Z TX23/1917Z PROB30 1907/1911 OVC006 BECMG 1911/1913 08005KT BECMG 1913/1915 07005KT 9999 BKN016 BECMG 1915/1917 SCT030 BECMG 1917/1919 12005KT BECMG 1920/1922 14005KT 8000 BKN011 BECMG 1923/2001 11002KT PROB30 2009/2011 4000 BR OVC004 RMK PGM

Decode

Departure Runways

ID Width Length Bearing (true) Bearing (mag) Surface Threshold Offset Overrun Length
09L 148 ft / 45 m 12,676 ft / 3,864 m 73.61° 95.08° Asphalt 495 ft / 151 m 0 ft / 0 m
09R 148 ft / 45 m 9,950 ft / 3,033 m 73.60° 95.07° Asphalt 0 ft / 0 m 197 ft / 60 m
27L 148 ft / 45 m 9,950 ft / 3,033 m 253.59° 275.06° Asphalt 0 ft / 0 m 197 ft / 60 m
27R 148 ft / 45 m 12,676 ft / 3,864 m 253.60° 275.07° Asphalt 197 ft / 60 m 0 ft / 0 m

SBCF

Details ICAO SBCF (CNF)
Name Tancredo Neves
Region Brazil
Timezone America/Sao_Paulo (UTC-3.0)
Stats Elevation 2,715 ft / 828 m (AMSL)
Location -19.633758° -43.968854°
Runways 1
Magnetic Variation 22.851° W

METAR

SBCF 191000Z 12005KT 9999 SCT025 15/14 Q1027

Decode

TAF

TAF SBCF 190200Z 1906/2006 13007KT CAVOK TN15/1908Z TX23/1918Z BECMG 1912/1914 10010KT 7000 SCT030 PROB30 1915/1918 BKN035 BECMG 1918/1920 09010KT 7000 FEW040 BECMG 2000/2002 12007KT CAVOK RMK PDE

Decode

Destination Runways

ID Width Length Bearing (true) Bearing (mag) Surface Threshold Offset Overrun Length
16 148 ft / 45 m 9,872 ft / 3,009 m 138.97° 161.82° Asphalt 0 ft / 0 m 203 ft / 62 m
34 148 ft / 45 m 9,872 ft / 3,009 m 318.96° 341.81° Asphalt 0 ft / 0 m 203 ft / 62 m

Approach Navaids

Runway Type Ident Frequency Range Bearing (true) Bearing (mag) Slope Elevation
16 Localiser ICF 109.70 MHz 18 nm / 33 km 138.90° 161.75° - 2,716 ft / 828 m (AMSL)
16 Glidescope ICF 109.70 MHz 10 nm / 19 km 138.96° 161.81° 3.00° 2,716 ft / 828 m (AMSL)

Popular Alternatives